createdAt,value
2019-02-09T00:01:23.505Z,66.12
2019-02-09T00:03:52.081Z,66.16
2019-02-09T00:06:20.631Z,66.19
2019-02-09T00:08:49.233Z,66.34
2019-02-09T00:11:17.773Z,66.29
2019-02-09T00:13:46.310Z,65.93
2019-02-09T00:16:14.881Z,65.82
2019-02-09T00:18:43.418Z,66.00
2019-02-09T00:21:11.998Z,66.21
2019-02-09T00:23:40.542Z,65.97
2019-02-09T00:26:09.111Z,66.16
2019-02-09T00:28:37.684Z,65.86
2019-02-09T00:31:06.247Z,65.93
2019-02-09T00:33:35.467Z,65.66
2019-02-09T00:36:04.035Z,66.09
2019-02-09T00:38:32.587Z,66.16
2019-02-09T00:41:01.982Z,65.76
2019-02-09T00:43:31.970Z,65.66
2019-02-09T00:46:00.857Z,65.87
2019-02-09T00:48:29.436Z,65.79
2019-02-09T00:50:58.795Z,65.83
2019-02-09T00:53:28.191Z,65.89
2019-02-09T00:55:56.770Z,65.75
2019-02-09T00:58:25.307Z,65.59
2019-02-09T01:00:53.843Z,65.58
2019-02-09T01:03:22.718Z,65.46
2019-02-09T01:05:51.333Z,65.69
2019-02-09T01:08:19.905Z,66.10
2019-02-09T01:10:48.440Z,67.76
2019-02-09T01:13:16.984Z,68.58
2019-02-09T01:15:45.564Z,68.52
2019-02-09T01:18:14.393Z,68.10
2019-02-09T01:20:43.290Z,69.05
2019-02-09T01:23:11.900Z,69.80
2019-02-09T01:25:40.443Z,69.71
2019-02-09T01:28:09.011Z,69.33
2019-02-09T01:30:37.983Z,68.27
2019-02-09T01:33:06.594Z,69.08
2019-02-09T01:35:35.530Z,69.10
2019-02-09T01:38:04.074Z,71.24
2019-02-09T01:40:32.655Z,71.96
2019-02-09T01:43:01.194Z,72.04
2019-02-09T01:45:30.543Z,70.63
2019-02-09T01:47:59.152Z,71.26
2019-02-09T01:50:29.160Z,70.86
2019-02-09T01:52:57.726Z,71.97
2019-02-09T01:55:27.206Z,72.49
2019-02-09T01:57:55.748Z,73.20
2019-02-09T02:00:26.160Z,73.63
2019-02-09T02:02:55.783Z,73.25
2019-02-09T02:08:35.033Z,74.33
2019-02-09T02:11:06.998Z,73.83
2019-02-09T02:13:39.324Z,74.68
2019-02-09T02:16:07.862Z,75.06
2019-02-09T02:18:36.452Z,74.94
2019-02-09T02:21:05.013Z,77.21
2019-02-09T02:23:33.543Z,76.90
2019-02-09T02:26:02.126Z,78.25
2019-02-09T02:28:30.672Z,77.81
2019-02-09T02:30:59.240Z,78.66
2019-02-09T02:33:27.804Z,78.95
2019-02-09T02:35:56.723Z,80.72
2019-02-09T02:38:25.270Z,79.98
2019-02-09T02:40:53.850Z,80.38
2019-02-09T02:43:22.392Z,79.85
2019-02-09T02:45:50.979Z,80.97
2019-02-09T02:48:19.528Z,81.90
2019-02-09T02:50:48.101Z,81.72
2019-02-09T02:53:16.734Z,81.10
2019-02-09T02:55:45.303Z,81.46
2019-02-09T02:58:13.839Z,82.37
2019-02-09T03:00:42.406Z,82.05
2019-02-09T03:03:10.984Z,82.32
2019-02-09T03:05:39.533Z,82.13
2019-02-09T03:08:08.085Z,81.98
2019-02-09T03:10:36.663Z,81.62
2019-02-09T03:13:05.234Z,82.62
2019-02-09T03:15:33.814Z,81.43
2019-02-09T03:18:02.404Z,82.37
2019-02-09T03:20:30.950Z,82.43
2019-02-09T03:22:59.834Z,82.56
2019-02-09T03:25:32.715Z,82.42
2019-02-09T03:28:01.260Z,83.10
2019-02-09T03:30:30.200Z,82.36
2019-02-09T03:32:59.111Z,83.06
2019-02-09T03:35:27.692Z,83.06
2019-02-09T03:37:57.262Z,83.57
2019-02-09T03:40:26.474Z,83.11
2019-02-09T03:42:55.834Z,83.13
2019-02-09T03:45:29.774Z,83.35
2019-02-09T03:47:59.492Z,83.74
2019-02-09T03:50:30.404Z,82.85
2019-02-09T03:52:59.259Z,83.34
2019-02-09T03:55:51.837Z,83.51
2019-02-09T03:59:21.164Z,83.30
2019-02-09T04:02:22.224Z,83.52
2019-02-09T04:08:13.769Z,83.91
2019-02-09T04:11:12.179Z,82.73
2019-02-09T04:17:48.755Z,83.81
2019-02-09T04:20:22.063Z,83.99
2019-02-09T04:23:08.890Z,83.12
2019-02-09T04:25:59.943Z,83.60
2019-02-09T04:28:40.027Z,83.24
2019-02-09T04:31:10.672Z,83.35
2019-02-09T04:33:44.680Z,83.03
2019-02-09T04:36:33.077Z,82.52
2019-02-09T04:39:10.047Z,82.67
2019-02-09T04:41:56.683Z,82.77
2019-02-09T04:44:28.226Z,82.14
2019-02-09T04:46:57.045Z,82.27
2019-02-09T04:49:28.631Z,82.47
2019-02-09T04:51:57.522Z,81.94
2019-02-09T04:54:26.395Z,81.71
2019-02-09T04:56:55.699Z,80.87
2019-02-09T04:59:27.091Z,80.80
2019-02-09T05:01:57.734Z,80.87
2019-02-09T05:04:29.429Z,80.30
2019-02-09T05:06:58.425Z,80.61
2019-02-09T05:09:27.630Z,80.44
2019-02-09T05:11:58.005Z,81.24
2019-02-09T05:14:29.196Z,81.41
2019-02-09T05:16:58.911Z,81.41
2019-02-09T05:19:29.133Z,82.10
2019-02-09T05:22:01.223Z,82.03
2019-02-09T05:24:30.257Z,81.97
2019-02-09T05:27:04.971Z,82.27
2019-02-09T05:29:39.223Z,81.84
2019-02-09T05:32:09.866Z,81.71
2019-02-09T05:34:48.503Z,81.57
2019-02-09T05:37:17.374Z,81.67
2019-02-09T05:39:57.444Z,81.63
2019-02-09T05:42:29.462Z,80.83
2019-02-09T05:45:02.608Z,80.99
2019-02-09T05:48:12.653Z,80.61
2019-02-09T05:51:35.410Z,80.38
2019-02-09T05:54:28.146Z,80.74
2019-02-09T05:57:55.524Z,80.22
2019-02-09T06:05:54.032Z,80.29
2019-02-09T06:09:40.131Z,80.60
2019-02-09T06:13:27.170Z,80.41
2019-02-09T06:20:51.885Z,78.13
2019-02-09T06:24:43.646Z,79.19
2019-02-09T06:42:44.757Z,73.72
2019-02-09T06:45:27.478Z,74.04
2019-02-09T06:51:47.719Z,75.85
2019-02-09T06:54:25.825Z,77.45
2019-02-09T06:57:22.561Z,77.45
2019-02-09T07:00:04.350Z,77.77
2019-02-09T07:03:01.001Z,77.94
2019-02-09T07:05:35.813Z,77.69
2019-02-09T07:08:05.568Z,78.06
2019-02-09T07:10:44.615Z,77.62
2019-02-09T07:13:38.874Z,77.15
2019-02-09T07:16:38.665Z,76.94
2019-02-09T07:23:45.632Z,76.72
2019-02-09T07:26:22.257Z,77.24
2019-02-09T07:32:44.028Z,75.25
2019-02-09T07:36:12.955Z,75.56
2019-02-09T07:38:41.532Z,76.83
2019-02-09T07:41:10.087Z,75.74
2019-02-09T07:43:38.660Z,76.01
2019-02-09T07:46:07.601Z,75.45
2019-02-09T07:48:36.469Z,74.26
2019-02-09T07:51:05.037Z,73.33
2019-02-09T07:53:33.619Z,71.84
2019-02-09T07:56:03.024Z,72.20
2019-02-09T07:58:33.185Z,70.71
2019-02-09T08:01:01.872Z,70.45
2019-02-09T08:03:35.756Z,70.62
2019-02-09T08:06:04.610Z,69.71
2019-02-09T08:08:33.849Z,68.95
2019-02-09T08:11:09.056Z,69.26
2019-02-09T08:13:33.389Z,69.44
2019-02-09T08:16:02.586Z,68.31
2019-02-09T08:18:31.490Z,69.40
2019-02-09T08:21:00.376Z,68.87
2019-02-09T08:23:29.652Z,69.55
2019-02-09T08:26:01.807Z,68.50
2019-02-09T08:28:30.448Z,68.97
2019-02-09T08:30:58.995Z,71.66
2019-02-09T08:33:27.906Z,71.22
2019-02-09T08:35:56.486Z,71.76
2019-02-09T08:38:25.056Z,72.15
2019-02-09T08:40:53.645Z,72.85
2019-02-09T08:43:22.197Z,72.30
2019-02-09T08:45:53.492Z,71.89
2019-02-09T08:48:26.951Z,71.06
2019-02-09T08:51:00.414Z,70.76
2019-02-09T08:53:33.676Z,70.51
2019-02-09T08:56:02.791Z,68.57
2019-02-09T08:58:31.364Z,66.83
2019-02-09T09:01:00.545Z,65.75
2019-02-09T09:03:30.221Z,66.68
2019-02-09T09:06:13.117Z,66.24
2019-02-09T09:12:13.730Z,64.00
2019-02-09T09:15:40.983Z,64.89
2019-02-09T09:19:13.540Z,65.79
2019-02-09T09:22:54.775Z,65.68
2019-02-09T09:29:10.654Z,63.52
2019-02-09T09:31:39.194Z,64.29
2019-02-09T09:34:07.769Z,63.79
2019-02-09T09:36:36.333Z,63.07
2019-02-09T09:39:08.158Z,62.51
2019-02-09T10:10:51.152Z,61.75
2019-02-09T10:13:19.722Z,61.70
2019-02-09T10:15:48.305Z,62.24
2019-02-09T10:18:17.148Z,61.11
2019-02-09T10:20:45.688Z,61.59
2019-02-09T10:23:14.275Z,61.30
2019-02-09T10:25:42.894Z,59.08
2019-02-09T10:28:12.834Z,58.17
2019-02-09T10:30:41.403Z,58.81
2019-02-09T10:33:09.955Z,59.55
2019-02-09T10:35:38.499Z,57.84
2019-02-09T10:38:07.099Z,58.26
2019-02-09T10:40:35.675Z,58.85
2019-02-09T10:43:04.847Z,56.62
2019-02-09T10:45:33.406Z,57.15
2019-02-09T10:48:02.014Z,57.54
2019-02-09T10:50:35.536Z,56.76
2019-02-09T10:53:04.539Z,56.94
2019-02-09T10:55:33.129Z,56.01
2019-02-09T10:58:01.674Z,56.73
2019-02-09T11:00:33.476Z,56.38
2019-02-09T11:03:02.092Z,55.87
2019-02-09T11:05:30.644Z,55.85
2019-02-09T11:07:59.217Z,56.14
2019-02-09T11:10:27.834Z,56.18
2019-02-09T11:12:56.387Z,55.07
2019-02-09T11:15:24.936Z,54.08
2019-02-09T11:17:53.514Z,52.69
2019-02-09T11:20:22.418Z,52.92
2019-02-09T11:22:50.996Z,52.13
2019-02-09T11:25:19.964Z,51.34
2019-02-09T11:27:48.823Z,52.55
2019-02-09T11:30:20.464Z,50.91
2019-02-09T11:32:49.814Z,51.88
2019-02-09T11:35:19.561Z,52.40
2019-02-09T11:37:49.310Z,52.26
2019-02-09T11:40:19.570Z,52.65
2019-02-09T11:42:48.983Z,53.43
2019-02-09T11:45:20.677Z,53.03
2019-02-09T11:47:51.453Z,52.93
2019-02-09T11:50:20.073Z,52.71
2019-02-09T11:52:48.992Z,52.46
2019-02-09T11:55:17.947Z,51.34
2019-02-09T11:57:47.427Z,51.46
2019-02-09T12:00:25.523Z,51.22
2019-02-09T12:03:02.080Z,49.17
2019-02-09T12:05:24.767Z,49.14
2019-02-09T12:07:53.781Z,48.25
2019-02-09T12:10:22.373Z,47.13
2019-02-09T12:12:51.316Z,49.04
2019-02-09T12:15:26.347Z,49.27
2019-02-09T12:17:55.289Z,48.04
2019-02-09T12:20:23.866Z,48.36
2019-02-09T12:22:52.452Z,46.51
2019-02-09T12:25:24.215Z,47.51
2019-02-09T12:27:53.544Z,48.68
2019-02-09T12:30:23.726Z,46.80
2019-02-09T12:32:52.303Z,48.29
2019-02-09T12:35:21.109Z,50.04
2019-02-09T12:37:50.250Z,48.28
2019-02-09T12:40:21.563Z,50.19
2019-02-09T12:42:50.923Z,50.33
2019-02-09T12:45:20.968Z,49.99
2019-02-09T12:47:50.316Z,51.60
2019-02-09T12:50:20.155Z,50.63
2019-02-09T12:52:48.709Z,50.81
2019-02-09T12:55:17.321Z,51.93
2019-02-09T12:57:45.900Z,50.75
2019-02-09T13:00:17.702Z,48.49
2019-02-09T13:02:46.282Z,50.43
2019-02-09T13:05:14.830Z,51.43
2019-02-09T13:07:43.696Z,50.65
2019-02-09T13:10:12.291Z,51.54
2019-02-09T13:12:40.915Z,51.15
2019-02-09T13:15:12.380Z,50.91
2019-02-09T13:17:41.279Z,51.64
2019-02-09T13:20:13.368Z,51.59
2019-02-09T13:22:41.953Z,51.92
2019-02-09T13:25:10.590Z,52.46
2019-02-09T13:27:39.143Z,50.79
2019-02-09T13:30:11.412Z,52.03
2019-02-09T13:32:40.676Z,48.87
2019-02-09T13:35:10.174Z,47.93
2019-02-09T13:37:39.171Z,48.03
2019-02-09T13:40:10.002Z,49.01
2019-02-09T13:42:38.549Z,48.16
2019-02-09T13:45:11.811Z,46.21
2019-02-09T13:47:39.630Z,46.09
2019-02-09T13:50:10.680Z,45.22
2019-02-09T13:52:40.382Z,44.80
2019-02-09T13:55:11.437Z,44.32
2019-02-09T13:57:40.939Z,46.14
2019-02-09T14:00:13.474Z,47.25
2019-02-09T14:02:42.328Z,47.10
2019-02-09T14:05:11.510Z,44.49
2019-02-09T14:07:40.563Z,46.79
2019-02-09T14:10:10.739Z,47.74
2019-02-09T14:12:39.708Z,47.64
2019-02-09T14:15:12.217Z,51.92
2019-02-09T14:17:41.143Z,49.88
2019-02-09T14:20:11.596Z,49.65
2019-02-09T14:22:40.873Z,49.88
2019-02-09T14:25:09.870Z,52.00
2019-02-09T14:27:38.910Z,55.48
2019-02-09T14:30:14.685Z,58.99
2019-02-09T14:32:44.542Z,62.85
2019-02-09T14:35:14.140Z,64.30
2019-02-09T14:37:43.713Z,64.48
2019-02-09T14:40:16.088Z,64.12
2019-02-09T14:42:44.631Z,64.78
2019-02-09T14:45:16.247Z,69.78
2019-02-09T14:47:44.881Z,70.76
2019-02-09T14:50:14.096Z,70.06
2019-02-09T14:52:42.703Z,68.08
2019-02-09T14:55:13.619Z,67.19
2019-02-09T14:57:42.160Z,67.12
2019-02-09T15:00:15.611Z,62.75
2019-02-09T15:02:53.341Z,59.68
2019-02-09T15:05:17.073Z,59.62
2019-02-09T15:07:46.977Z,58.27
2019-02-09T15:10:18.973Z,59.27
2019-02-09T15:12:48.616Z,57.44
2019-02-09T15:15:21.524Z,56.58
2019-02-09T15:17:50.866Z,56.26
2019-02-09T15:20:24.260Z,57.44
2019-02-09T15:22:54.454Z,57.57
2019-02-09T15:25:23.806Z,56.67
2019-02-09T15:27:53.460Z,58.22
2019-02-09T15:30:25.318Z,58.03
2019-02-09T15:32:55.088Z,58.33
2019-02-09T15:35:24.746Z,58.01
2019-02-09T15:37:54.457Z,58.51
2019-02-09T15:40:24.209Z,58.06
2019-02-09T15:42:53.877Z,57.00
2019-02-09T15:45:23.530Z,58.32
2019-02-09T15:47:52.522Z,57.61
2019-02-09T15:50:22.095Z,57.88
2019-02-09T15:52:51.881Z,57.07
2019-02-09T15:55:21.275Z,57.76
2019-02-09T15:57:50.920Z,58.09
2019-02-09T16:00:24.996Z,58.93
2019-02-09T16:02:55.586Z,57.38
2019-02-09T16:05:25.317Z,57.50
2019-02-09T16:07:54.985Z,56.32
2019-02-09T16:10:25.010Z,56.41
2019-02-09T16:12:54.381Z,56.85
2019-02-09T16:15:25.558Z,56.31
2019-02-09T16:17:54.998Z,56.55
2019-02-09T16:20:24.993Z,59.29
2019-02-09T16:22:54.618Z,60.32
2019-02-09T16:25:24.303Z,62.30
2019-02-09T16:27:54.036Z,61.51
2019-02-09T16:30:25.001Z,62.30
2019-02-09T16:32:54.695Z,62.85
2019-02-09T16:35:24.356Z,62.87
2019-02-09T16:37:53.793Z,62.92
2019-02-09T16:40:25.244Z,62.62
2019-02-09T16:42:54.948Z,61.61
2019-02-09T16:45:26.589Z,61.51
2019-02-09T16:47:55.826Z,62.67
2019-02-09T16:50:24.709Z,62.52
2019-02-09T16:52:53.282Z,63.29
2019-02-09T16:55:21.954Z,63.35
2019-02-09T16:57:52.728Z,62.85
2019-02-09T17:00:33.681Z,64.39
2019-02-09T17:03:03.379Z,63.68
2019-02-09T17:05:32.799Z,63.60
2019-02-09T17:08:02.525Z,64.43
2019-02-09T17:10:32.192Z,64.86
2019-02-09T17:13:01.735Z,65.55
2019-02-09T17:15:31.382Z,65.91
2019-02-09T17:18:00.715Z,66.50
2019-02-09T17:20:30.425Z,66.39
2019-02-09T17:23:01.496Z,65.75
2019-02-09T17:25:31.178Z,65.99
2019-02-09T17:28:01.013Z,65.90
2019-02-09T17:30:31.117Z,65.73
2019-02-09T17:33:01.116Z,66.01
2019-02-09T17:35:31.344Z,66.28
2019-02-09T17:38:00.623Z,66.27
2019-02-09T17:40:32.768Z,65.73
2019-02-09T17:43:02.372Z,66.41
2019-02-09T17:45:34.903Z,66.58
2019-02-09T17:48:04.524Z,66.91
2019-02-09T17:50:33.530Z,66.48
2019-02-09T17:53:03.046Z,67.23
2019-02-09T17:55:32.694Z,67.15
2019-02-09T17:58:02.338Z,67.36
2019-02-09T18:00:38.129Z,66.35
2019-02-09T18:03:06.680Z,65.51
2019-02-09T18:05:35.309Z,66.27
2019-02-09T18:08:03.889Z,65.48
2019-02-09T18:10:32.872Z,65.89
2019-02-09T18:13:02.130Z,65.99
2019-02-09T18:15:30.775Z,65.89
2019-02-09T18:17:59.510Z,65.78
2019-02-09T18:20:29.126Z,66.19
2019-02-09T18:22:58.761Z,66.17
2019-02-09T18:25:28.467Z,66.24
2019-02-09T18:27:58.057Z,65.98
2019-02-09T18:30:27.898Z,65.55
2019-02-09T18:32:57.507Z,64.85
2019-02-09T18:35:26.396Z,64.56
2019-02-09T18:37:55.034Z,65.34
2019-02-09T18:40:24.684Z,65.37
2019-02-09T18:42:53.494Z,64.80
2019-02-09T18:45:23.841Z,64.02
2019-02-09T18:47:52.384Z,64.24
2019-02-09T18:50:22.703Z,63.97
2019-02-09T18:52:51.359Z,63.91
2019-02-09T18:55:21.413Z,63.89
2019-02-09T18:57:49.952Z,64.09
2019-02-09T19:00:20.974Z,64.15
2019-02-09T19:02:49.513Z,64.02
2019-02-09T19:05:18.069Z,63.66
2019-02-09T19:07:46.644Z,62.94
2019-02-09T19:10:18.041Z,63.22
2019-02-09T19:12:46.580Z,63.55
2019-02-09T19:15:16.063Z,62.65
2019-02-09T19:17:44.632Z,63.37
2019-02-09T19:20:33.537Z,63.19
2019-02-09T19:23:02.100Z,63.20
2019-02-09T19:25:30.991Z,63.75
2019-02-09T19:27:59.628Z,63.51
2019-02-09T19:30:28.228Z,64.22
2019-02-09T19:32:56.770Z,63.76
2019-02-09T19:35:25.330Z,63.46
2019-02-09T19:37:54.146Z,63.92
2019-02-09T19:40:22.837Z,62.82
2019-02-09T19:42:51.382Z,63.16
2019-02-09T19:45:28.270Z,63.04
2019-02-09T19:47:56.813Z,62.95
2019-02-09T19:50:25.358Z,63.08
2019-02-09T19:52:53.939Z,62.96
2019-02-09T19:55:24.209Z,63.10
2019-02-09T19:57:53.110Z,63.45
2019-02-09T20:00:23.772Z,63.54
2019-02-09T20:02:52.319Z,63.04
2019-02-09T20:05:20.868Z,63.68
2019-02-09T20:07:49.765Z,62.44
2019-02-09T20:10:21.119Z,62.00
2019-02-09T20:12:49.738Z,62.21
2019-02-09T20:15:18.379Z,62.41
2019-02-09T20:17:46.947Z,62.13
2019-02-09T20:20:15.820Z,62.73
2019-02-09T20:22:44.359Z,62.18
2019-02-09T20:25:15.625Z,62.10
2019-02-09T20:27:44.210Z,61.61
2019-02-09T20:30:20.983Z,62.26
2019-02-09T20:32:49.603Z,62.45
2019-02-09T20:35:18.511Z,63.25
2019-02-09T20:37:47.060Z,62.41
2019-02-09T20:40:25.285Z,62.25
2019-02-09T20:43:01.541Z,61.37
2019-02-09T20:45:24.147Z,61.40
2019-02-09T20:47:52.720Z,61.33
2019-02-09T20:50:21.486Z,60.75
2019-02-09T20:52:50.027Z,61.72
2019-02-09T20:55:19.174Z,61.67
2019-02-09T20:57:47.746Z,61.41
2019-02-09T21:00:18.621Z,61.91
2019-02-09T21:02:47.346Z,61.47
2019-02-09T21:05:15.916Z,61.23
2019-02-09T21:07:44.806Z,61.07
2019-02-09T21:10:32.063Z,60.98
2019-02-09T21:13:00.603Z,60.31
2019-02-09T21:15:29.197Z,60.77
2019-02-09T21:17:57.804Z,60.71
2019-02-09T21:20:26.430Z,60.55
2019-02-09T21:22:54.981Z,59.72
2019-02-09T21:25:26.036Z,60.07
2019-02-09T21:27:54.667Z,60.05
2019-02-09T21:30:23.244Z,60.20
2019-02-09T21:32:51.853Z,60.31
2019-02-09T21:35:20.469Z,60.32
2019-02-09T21:37:49.026Z,60.98
2019-02-09T21:40:19.342Z,60.59
2019-02-09T21:42:47.925Z,60.89
2019-02-09T21:45:17.432Z,61.14
2019-02-09T21:47:46.360Z,61.49
2019-02-09T21:50:20.568Z,61.25
2019-02-09T21:52:49.134Z,60.61
2019-02-09T21:55:17.787Z,60.77
2019-02-09T21:57:46.439Z,61.22
2019-02-09T22:00:23.795Z,61.16
2019-02-09T22:02:52.376Z,60.70
2019-02-09T22:05:20.945Z,61.48
2019-02-09T22:07:49.527Z,61.46
2019-02-09T22:10:20.074Z,61.30
2019-02-09T22:12:48.716Z,61.78
2019-02-09T22:15:18.413Z,61.86
2019-02-09T22:17:46.986Z,62.03
2019-02-09T22:20:16.405Z,62.04
2019-02-09T22:22:44.946Z,62.57
2019-02-09T22:25:15.998Z,62.83
2019-02-09T22:27:45.094Z,63.15
2019-02-09T22:30:16.469Z,62.87
2019-02-09T22:32:45.170Z,62.86
2019-02-09T22:35:13.807Z,62.65
2019-02-09T22:37:42.382Z,63.23
2019-02-09T22:40:16.861Z,62.56
2019-02-09T22:42:45.510Z,63.07
2019-02-09T22:45:14.492Z,63.23
2019-02-09T22:47:43.034Z,63.44
2019-02-09T22:50:19.088Z,63.52
2019-02-09T22:52:45.476Z,63.92
2019-02-09T22:55:14.574Z,64.02
2019-02-09T22:57:43.154Z,64.36
2019-02-09T23:00:53.355Z,64.13
2019-02-09T23:03:49.173Z,64.23
2019-02-09T23:07:08.086Z,64.05
2019-02-09T23:09:36.653Z,63.72
2019-02-09T23:12:05.202Z,64.05
2019-02-09T23:14:33.794Z,63.61
2019-02-09T23:17:02.364Z,63.61
2019-02-09T23:19:30.927Z,64.01
2019-02-09T23:21:59.517Z,64.38
2019-02-09T23:24:28.068Z,64.67
2019-02-09T23:26:56.647Z,64.45
2019-02-09T23:29:25.199Z,64.38
2019-02-09T23:31:53.754Z,64.03
2019-02-09T23:34:22.329Z,64.28
2019-02-09T23:36:50.871Z,64.37
2019-02-09T23:39:19.438Z,64.38
2019-02-09T23:41:48.016Z,63.86
2019-02-09T23:44:16.562Z,64.81
2019-02-09T23:46:45.574Z,64.22
2019-02-09T23:49:14.221Z,64.31
2019-02-09T23:51:42.766Z,64.18
2019-02-09T23:54:11.308Z,64.48
2019-02-09T23:56:39.878Z,65.11
2019-02-09T23:59:08.440Z,64.92
